Few Clouds Current Weather (METAR) For Manchester Airport

All times on the weather descriptions are local

Observed at 15:20 - (17 mins ago)

Few Clouds

27°C

Few Clouds
Clouds: Few Clouds at 4,000ft
Wind: 100° at 14 knots
Visibility: Greater than 10km
QNH: 1019
Dew Point: 12°C
Runway in Use: Runways 05L/R

Sunrise Today: 05:11
Sunset Today: 21:19

Forecast Weather (TAF) For Manchester Airport

Issued at 01:00 - (6 days 9 hrs ago)


Runway in Use: Likely Runways 23L/R

Forecast valid until 01:00 on Thursday

METAR/TAF RAW METAR / TAF

EGCC 241420Z 10014KT 9999 FEW040 27/12 Q1019

Weather Widget

Put weather from any of our airports on your website with our weather widget.

Find Another Search

Airport Search


Please Wait Please Wait - Loading
Close
Close

Login

Username:

Password:

Remember Me:

Remember me on this computer

Forgotten your password? Get a reset password sent to your registered e-mail address

Close

User Private Message

Subject:

Message: